LAN406 SCEL-SUMU
Flight info
| Callsign | LAN406 |
|---|---|
| Flight time | 1h 42m |
| Altitude | 37000 |
| Route | ALBAL7C ALBAL UM424 TOKAM |
| Aircraft | A320/M-SDE3FGHIRWY/LB1 |
Departure
| Time | 2026-04-24 15:09 |
|---|---|
| Airport | Comodoro Arturo Merino Benítez International Airport (SCEL) |
Arrival
| Time | 2026-04-24 16:52 |
|---|---|
| Airport | Carrasco General Cesáreo L. Berisso International Airport (SUMU) |
| Time | Latitude | Longitude | Altitude | Speed | Heading |
|---|---|---|---|---|---|
| 2026-04-24 14:04 | -33.39937 | -70.79800 | 1572 ft | 0 kts | 176° |
| 2026-04-24 14:48 | -33.39921 | -70.79801 | 1564 ft | 4 kts | 179° |
| 2026-04-24 14:48 | -33.39894 | -70.79800 | 1564 ft | 4 kts | 189° |
| 2026-04-24 14:48 | -33.39870 | -70.79791 | 1565 ft | 4 kts | 217° |
| 2026-04-24 14:49 | -33.39859 | -70.79774 | 1565 ft | 0 kts | 267° |
| 2026-04-24 14:56 | -33.39859 | -70.79784 | 1565 ft | 5 kts | 268° |
| 2026-04-24 14:56 | -33.39861 | -70.79834 | 1565 ft | 7 kts | 268° |
| 2026-04-24 14:56 | -33.39845 | -70.79892 | 1565 ft | 8 kts | 279° |
| 2026-04-24 14:56 | -33.39843 | -70.79956 | 1565 ft | 8 kts | 262° |
| 2026-04-24 14:57 | -33.39832 | -70.80018 | 1566 ft | 8 kts | 326° |
| 2026-04-24 14:57 | -33.39774 | -70.80031 | 1566 ft | 9 kts | 359° |
| 2026-04-24 14:57 | -33.39697 | -70.80033 | 1566 ft | 13 kts | 357° |
| 2026-04-24 14:57 | -33.39597 | -70.80039 | 1566 ft | 15 kts | 357° |
| 2026-04-24 14:58 | -33.39485 | -70.80045 | 1566 ft | 17 kts | 358° |
| 2026-04-24 14:58 | -33.39362 | -70.80052 | 1566 ft | 18 kts | 357° |
| 2026-04-24 14:58 | -33.39229 | -70.80058 | 1566 ft | 20 kts | 356° |
| 2026-04-24 14:58 | -33.39085 | -70.80068 | 1566 ft | 21 kts | 356° |
| 2026-04-24 14:59 | -33.38932 | -70.80077 | 1567 ft | 23 kts | 358° |
| 2026-04-24 14:59 | -33.38768 | -70.80084 | 1567 ft | 24 kts | 358° |
| 2026-04-24 14:59 | -33.38595 | -70.80094 | 1567 ft | 26 kts | 357° |
| 2026-04-24 14:59 | -33.38413 | -70.80104 | 1566 ft | 27 kts | 358° |
| 2026-04-24 15:00 | -33.38278 | -70.80111 | 1566 ft | 18 kts | 357° |
| 2026-04-24 15:00 | -33.38144 | -70.80118 | 1566 ft | 20 kts | 358° |
| 2026-04-24 15:00 | -33.38050 | -70.80123 | 1566 ft | 21 kts | 358° |
| 2026-04-24 15:00 | -33.37899 | -70.80131 | 1566 ft | 23 kts | 357° |
| 2026-04-24 15:01 | -33.37738 | -70.80140 | 1566 ft | 24 kts | 357° |
| 2026-04-24 15:01 | -33.37530 | -70.80152 | 1566 ft | 21 kts | 358° |
| 2026-04-24 15:01 | -33.37386 | -70.80160 | 1567 ft | 19 kts | 356° |
| 2026-04-24 15:01 | -33.37261 | -70.80166 | 1567 ft | 11 kts | 357° |
| 2026-04-24 15:02 | -33.37213 | -70.80169 | 1567 ft | 0 kts | 357° |
| 2026-04-24 15:04 | -33.37208 | -70.80169 | 1567 ft | 3 kts | 357° |
| 2026-04-24 15:04 | -33.37184 | -70.80170 | 1553 ft | 0 kts | 360° |
| 2026-04-24 15:04 | -33.37173 | -70.80170 | 1563 ft | 3 kts | 358° |
| 2026-04-24 15:05 | -33.37165 | -70.80171 | 1567 ft | 0 kts | 358° |
| 2026-04-24 15:05 | -33.37164 | -70.80171 | 1567 ft | 0 kts | 358° |
| 2026-04-24 15:05 | -33.37136 | -70.80185 | 1567 ft | 9 kts | 322° |
| 2026-04-24 15:05 | -33.37111 | -70.80229 | 1568 ft | 4 kts | 293° |
| 2026-04-24 15:06 | -33.37108 | -70.80237 | 1569 ft | 0 kts | 288° |
| 2026-04-24 15:07 | -33.37104 | -70.80257 | 1570 ft | 8 kts | 279° |
| 2026-04-24 15:08 | -33.37109 | -70.80312 | 1573 ft | 5 kts | 251° |
| 2026-04-24 15:08 | -33.37133 | -70.80353 | 1574 ft | 7 kts | 223° |
| 2026-04-24 15:08 | -33.37184 | -70.80372 | 1573 ft | 9 kts | 180° |
| 2026-04-24 15:08 | -33.37375 | -70.80364 | 1574 ft | 59 kts | 178° |
| 2026-04-24 15:09 | -33.38002 | -70.80331 | 1572 ft | 118 kts | 177° |
| 2026-04-24 15:09 | -33.38979 | -70.80280 | 1575 ft | 162 kts | 178° |
| 2026-04-24 15:09 | -33.40157 | -70.80223 | 1987 ft | 171 kts | 178° |
| 2026-04-24 15:09 | -33.41335 | -70.80161 | 2588 ft | 172 kts | 178° |
| 2026-04-24 15:10 | -33.42563 | -70.80093 | 2987 ft | 186 kts | 178° |
| 2026-04-24 15:10 | -33.43930 | -70.80019 | 3195 ft | 209 kts | 177° |
| 2026-04-24 15:10 | -33.45457 | -70.79936 | 3450 ft | 231 kts | 178° |
| 2026-04-24 15:10 | -33.47083 | -70.79846 | 3971 ft | 241 kts | 177° |
| 2026-04-24 15:11 | -33.48775 | -70.79753 | 4637 ft | 246 kts | 177° |
| 2026-04-24 15:11 | -33.50502 | -70.79658 | 5297 ft | 252 kts | 177° |
| 2026-04-24 15:11 | -33.52276 | -70.79554 | 5752 ft | 261 kts | 177° |
| 2026-04-24 15:11 | -33.54157 | -70.79431 | 6050 ft | 278 kts | 176° |
| 2026-04-24 15:12 | -33.56100 | -70.79231 | 6791 ft | 283 kts | 175° |
| 2026-04-24 15:12 | -33.60101 | -70.78717 | 8274 ft | 294 kts | 174° |
| 2026-04-24 15:12 | -33.62152 | -70.78449 | 9005 ft | 299 kts | 175° |
| 2026-04-24 15:13 | -33.64209 | -70.78185 | 9717 ft | 304 kts | 175° |
| 2026-04-24 15:13 | -33.66337 | -70.77919 | 10297 ft | 315 kts | 175° |
| 2026-04-24 15:13 | -33.68598 | -70.77641 | 10459 ft | 338 kts | 175° |
| 2026-04-24 15:13 | -33.70991 | -70.77352 | 10844 ft | 351 kts | 175° |
| 2026-04-24 15:14 | -33.73433 | -70.77059 | 11514 ft | 354 kts | 175° |
| 2026-04-24 15:14 | -33.75898 | -70.76761 | 12192 ft | 357 kts | 176° |
| 2026-04-24 15:14 | -33.78365 | -70.76332 | 12858 ft | 361 kts | 167° |
| 2026-04-24 15:14 | -33.80720 | -70.75235 | 13509 ft | 366 kts | 152° |
| 2026-04-24 15:15 | -33.82795 | -70.73438 | 14150 ft | 371 kts | 137° |
| 2026-04-24 15:15 | -33.84446 | -70.71047 | 14713 ft | 375 kts | 122° |
| 2026-04-24 15:15 | -33.85627 | -70.68233 | 15265 ft | 378 kts | 114° |
| 2026-04-24 15:15 | -33.86727 | -70.65349 | 15814 ft | 381 kts | 115° |
| 2026-04-24 15:16 | -33.87826 | -70.62476 | 16354 ft | 385 kts | 115° |
| 2026-04-24 15:16 | -33.88953 | -70.59535 | 16916 ft | 388 kts | 116° |
| 2026-04-24 15:16 | -33.90090 | -70.56566 | 17461 ft | 392 kts | 116° |
| 2026-04-24 15:16 | -33.91235 | -70.53566 | 18021 ft | 396 kts | 115° |
| 2026-04-24 15:17 | -33.92387 | -70.50539 | 18566 ft | 400 kts | 116° |
| 2026-04-24 15:17 | -33.93556 | -70.47466 | 19005 ft | 405 kts | 116° |
| 2026-04-24 15:17 | -33.94733 | -70.44369 | 19495 ft | 409 kts | 116° |
| 2026-04-24 15:17 | -33.95925 | -70.41232 | 20006 ft | 413 kts | 116° |
| 2026-04-24 15:18 | -33.97111 | -70.38108 | 20491 ft | 417 kts | 116° |
| 2026-04-24 15:18 | -33.98322 | -70.34914 | 21002 ft | 421 kts | 116° |
| 2026-04-24 15:18 | -33.99544 | -70.31689 | 21501 ft | 425 kts | 116° |
| 2026-04-24 15:18 | -34.00776 | -70.28433 | 21961 ft | 429 kts | 116° |
| 2026-04-24 15:19 | -34.02014 | -70.25151 | 22418 ft | 433 kts | 116° |
| 2026-04-24 15:19 | -34.03266 | -70.21837 | 22927 ft | 436 kts | 116° |
| 2026-04-24 15:19 | -34.04530 | -70.18491 | 23350 ft | 440 kts | 117° |
| 2026-04-24 15:19 | -34.05784 | -70.15163 | 23818 ft | 444 kts | 117° |
| 2026-04-24 15:20 | -34.07064 | -70.11763 | 24100 ft | 448 kts | 117° |
| 2026-04-24 15:20 | -34.08355 | -70.08330 | 24473 ft | 450 kts | 117° |
| 2026-04-24 15:20 | -34.09652 | -70.04882 | 24863 ft | 453 kts | 117° |
| 2026-04-24 15:20 | -34.10959 | -70.01407 | 25209 ft | 457 kts | 117° |
| 2026-04-24 15:21 | -34.12275 | -69.97900 | 25578 ft | 460 kts | 117° |
| 2026-04-24 15:21 | -34.13596 | -69.94371 | 25967 ft | 462 kts | 117° |
| 2026-04-24 15:21 | -34.14922 | -69.90819 | 26322 ft | 465 kts | 117° |
| 2026-04-24 15:21 | -34.16257 | -69.87242 | 26679 ft | 468 kts | 117° |
| 2026-04-24 15:22 | -34.17560 | -69.83686 | 27066 ft | 470 kts | 114° |
| 2026-04-24 15:22 | -34.18550 | -69.79913 | 27465 ft | 474 kts | 104° |
| 2026-04-24 15:22 | -34.19143 | -69.75990 | 27782 ft | 477 kts | 101° |
| 2026-04-24 15:23 | -34.20224 | -69.68049 | 28438 ft | 482 kts | 101° |
| 2026-04-24 15:23 | -34.21317 | -69.60027 | 29080 ft | 486 kts | 101° |
| 2026-04-24 15:23 | -34.21874 | -69.55989 | 29389 ft | 488 kts | 101° |
| 2026-04-24 15:24 | -34.23557 | -69.43766 | 30383 ft | 493 kts | 101° |
| 2026-04-24 15:25 | -34.24649 | -69.35642 | 31084 ft | 492 kts | 101° |
| 2026-04-24 15:25 | -34.25746 | -69.27474 | 31776 ft | 492 kts | 101° |
| 2026-04-24 15:26 | -34.27397 | -69.15218 | 32811 ft | 493 kts | 101° |
| 2026-04-24 15:27 | -34.29029 | -69.02920 | 33859 ft | 494 kts | 101° |
| 2026-04-24 15:27 | -34.30629 | -68.90593 | 34671 ft | 496 kts | 101° |
| 2026-04-24 15:28 | -34.32773 | -68.74098 | 35565 ft | 499 kts | 100° |
| 2026-04-24 15:29 | -34.33847 | -68.65780 | 35986 ft | 501 kts | 100° |
| 2026-04-24 15:30 | -34.35458 | -68.53220 | 36554 ft | 505 kts | 100° |
| 2026-04-24 15:31 | -34.37584 | -68.36370 | 37079 ft | 513 kts | 100° |
| 2026-04-24 15:33 | -34.41849 | -68.02024 | 37080 ft | 517 kts | 100° |
| 2026-04-24 15:34 | -34.44468 | -67.80462 | 37089 ft | 518 kts | 99° |
| 2026-04-24 15:35 | -34.46994 | -67.58850 | 37098 ft | 518 kts | 99° |
| 2026-04-24 15:36 | -34.47971 | -67.50249 | 37098 ft | 518 kts | 99° |
| 2026-04-24 15:36 | -34.49456 | -67.37269 | 37093 ft | 518 kts | 99° |
| 2026-04-24 15:37 | -34.50444 | -67.28615 | 37093 ft | 518 kts | 99° |
| 2026-04-24 15:37 | -34.51418 | -67.19954 | 37096 ft | 519 kts | 99° |
| 2026-04-24 15:38 | -34.52376 | -67.11335 | 37134 ft | 519 kts | 99° |
| 2026-04-24 15:38 | -34.53336 | -67.02661 | 37122 ft | 519 kts | 98° |
| 2026-04-24 15:39 | -34.54290 | -66.93995 | 37118 ft | 518 kts | 98° |
| 2026-04-24 15:39 | -34.55240 | -66.85321 | 37120 ft | 518 kts | 98° |
| 2026-04-24 15:40 | -34.56188 | -66.76660 | 37116 ft | 518 kts | 98° |
| 2026-04-24 15:40 | -34.57120 | -66.68059 | 37118 ft | 517 kts | 98° |
| 2026-04-24 15:41 | -34.58049 | -66.59405 | 37120 ft | 517 kts | 98° |
| 2026-04-24 15:41 | -34.58975 | -66.50749 | 37112 ft | 517 kts | 98° |
| 2026-04-24 15:42 | -34.59885 | -66.42098 | 37115 ft | 517 kts | 98° |
| 2026-04-24 15:42 | -34.60789 | -66.33499 | 37148 ft | 516 kts | 98° |
| 2026-04-24 15:43 | -34.61693 | -66.24877 | 37065 ft | 514 kts | 98° |
| 2026-04-24 15:43 | -34.62585 | -66.16273 | 37085 ft | 514 kts | 98° |
| 2026-04-24 15:44 | -34.63464 | -66.07661 | 37095 ft | 514 kts | 98° |
| 2026-04-24 15:44 | -34.64343 | -65.99054 | 37097 ft | 514 kts | 98° |
| 2026-04-24 15:45 | -34.65215 | -65.90493 | 37099 ft | 514 kts | 98° |
| 2026-04-24 15:45 | -34.66091 | -65.81883 | 37102 ft | 514 kts | 98° |
| 2026-04-24 15:46 | -34.66954 | -65.73271 | 37108 ft | 513 kts | 97° |
| 2026-04-24 15:46 | -34.67808 | -65.64657 | 37107 ft | 513 kts | 97° |
| 2026-04-24 15:47 | -34.68647 | -65.56105 | 37121 ft | 513 kts | 97° |
| 2026-04-24 15:47 | -34.69483 | -65.47484 | 37112 ft | 513 kts | 97° |
| 2026-04-24 15:48 | -34.70320 | -65.38875 | 37112 ft | 512 kts | 97° |
| 2026-04-24 15:48 | -34.71155 | -65.30284 | 37106 ft | 512 kts | 97° |
| 2026-04-24 15:49 | -34.71982 | -65.21679 | 37096 ft | 512 kts | 97° |
| 2026-04-24 15:49 | -34.72791 | -65.13135 | 37100 ft | 512 kts | 97° |
| 2026-04-24 15:50 | -34.73592 | -65.04528 | 37102 ft | 512 kts | 97° |
| 2026-04-24 15:50 | -34.74392 | -64.95923 | 37096 ft | 512 kts | 97° |
| 2026-04-24 15:51 | -34.75197 | -64.87311 | 37096 ft | 512 kts | 97° |
| 2026-04-24 15:51 | -34.75993 | -64.78705 | 37129 ft | 512 kts | 97° |
| 2026-04-24 15:52 | -34.76783 | -64.70095 | 37118 ft | 512 kts | 97° |
| 2026-04-24 15:52 | -34.77554 | -64.61545 | 37113 ft | 511 kts | 97° |
| 2026-04-24 15:53 | -34.78336 | -64.52948 | 37113 ft | 511 kts | 97° |
| 2026-04-24 15:53 | -34.79116 | -64.44356 | 37113 ft | 511 kts | 97° |
| 2026-04-24 15:54 | -34.79891 | -64.35761 | 37092 ft | 511 kts | 97° |
| 2026-04-24 15:54 | -34.80673 | -64.27169 | 37098 ft | 511 kts | 97° |
| 2026-04-24 15:55 | -34.81435 | -64.18567 | 37104 ft | 511 kts | 96° |
| 2026-04-24 15:55 | -34.82182 | -64.09959 | 37107 ft | 511 kts | 96° |
| 2026-04-24 15:56 | -34.82923 | -64.01411 | 37117 ft | 511 kts | 96° |
| 2026-04-24 15:56 | -34.83664 | -63.92819 | 37116 ft | 511 kts | 96° |
| 2026-04-24 15:57 | -34.84407 | -63.84217 | 37114 ft | 510 kts | 96° |
| 2026-04-24 15:57 | -34.85135 | -63.75623 | 37112 ft | 510 kts | 96° |
| 2026-04-24 15:58 | -34.85848 | -63.67019 | 37109 ft | 510 kts | 96° |
| 2026-04-24 15:58 | -34.86559 | -63.58426 | 37110 ft | 510 kts | 96° |
| 2026-04-24 15:59 | -34.87271 | -63.49887 | 37108 ft | 510 kts | 96° |
| 2026-04-24 15:59 | -34.87993 | -63.41284 | 37099 ft | 510 kts | 96° |
| 2026-04-24 16:00 | -34.88700 | -63.32689 | 37123 ft | 510 kts | 96° |
| 2026-04-24 16:00 | -34.89394 | -63.24084 | 37118 ft | 510 kts | 95° |
| 2026-04-24 16:01 | -34.90083 | -63.15473 | 37114 ft | 510 kts | 96° |
| 2026-04-24 16:01 | -34.90762 | -63.06935 | 37107 ft | 510 kts | 95° |
| 2026-04-24 16:02 | -34.91444 | -62.98331 | 37109 ft | 510 kts | 95° |
| 2026-04-24 16:02 | -34.92126 | -62.89725 | 37109 ft | 510 kts | 95° |
| 2026-04-24 16:03 | -34.92805 | -62.81113 | 37094 ft | 510 kts | 95° |
| 2026-04-24 16:03 | -34.93463 | -62.72502 | 37097 ft | 510 kts | 95° |
| 2026-04-24 16:04 | -34.94103 | -62.63945 | 37124 ft | 511 kts | 95° |
| 2026-04-24 16:04 | -34.94745 | -62.55318 | 37118 ft | 511 kts | 95° |
| 2026-04-24 16:05 | -34.95709 | -62.42389 | 37109 ft | 511 kts | 95° |
| 2026-04-24 16:06 | -34.96640 | -62.29451 | 37110 ft | 511 kts | 94° |
| 2026-04-24 16:07 | -34.97151 | -62.16538 | 37097 ft | 511 kts | 90° |
| 2026-04-24 16:07 | -34.97451 | -62.03550 | 37102 ft | 511 kts | 91° |
| 2026-04-24 16:08 | -34.97861 | -61.90621 | 37092 ft | 511 kts | 91° |
| 2026-04-24 16:09 | -34.98275 | -61.77619 | 37123 ft | 511 kts | 91° |
| 2026-04-24 16:09 | -34.98530 | -61.68958 | 37122 ft | 511 kts | 91° |
| 2026-04-24 16:11 | -34.99125 | -61.47349 | 37115 ft | 511 kts | 91° |
| 2026-04-24 16:11 | -34.99358 | -61.38691 | 37116 ft | 511 kts | 91° |
| 2026-04-24 16:12 | -34.99678 | -61.25692 | 37109 ft | 511 kts | 90° |
| 2026-04-24 16:13 | -34.99976 | -61.12697 | 37114 ft | 511 kts | 90° |
| 2026-04-24 16:14 | -35.00392 | -60.95423 | 37125 ft | 511 kts | 90° |
| 2026-04-24 16:14 | -35.00666 | -60.82429 | 37121 ft | 511 kts | 90° |
| 2026-04-24 16:15 | -35.00933 | -60.69424 | 37106 ft | 511 kts | 90° |
| 2026-04-24 16:16 | -35.01170 | -60.56480 | 37114 ft | 511 kts | 90° |
| 2026-04-24 16:17 | -35.01571 | -60.34787 | 37108 ft | 512 kts | 90° |
| 2026-04-24 16:18 | -35.01840 | -60.17471 | 37120 ft | 513 kts | 89° |
| 2026-04-24 16:19 | -35.02048 | -60.04413 | 37109 ft | 513 kts | 89° |
| 2026-04-24 16:20 | -35.02228 | -59.91337 | 37119 ft | 514 kts | 89° |
| 2026-04-24 16:20 | -35.02396 | -59.78322 | 37113 ft | 514 kts | 89° |
| 2026-04-24 16:21 | -35.02533 | -59.65226 | 37119 ft | 514 kts | 86° |
| 2026-04-24 16:22 | -35.01521 | -59.56674 | 37108 ft | 508 kts | 73° |
| 2026-04-24 16:22 | -34.99235 | -59.44096 | 37114 ft | 509 kts | 73° |
| 2026-04-24 16:23 | -34.97702 | -59.35665 | 37116 ft | 509 kts | 73° |
| 2026-04-24 16:24 | -34.95381 | -59.23016 | 37133 ft | 510 kts | 73° |
| 2026-04-24 16:24 | -34.93834 | -59.14581 | 37129 ft | 510 kts | 73° |
| 2026-04-24 16:25 | -34.92275 | -59.06152 | 37130 ft | 510 kts | 73° |
| 2026-04-24 16:25 | -34.90974 | -58.99158 | 37132 ft | 510 kts | 73° |
| 2026-04-24 16:26 | -34.88366 | -58.85157 | 37127 ft | 510 kts | 73° |
| 2026-04-24 16:27 | -34.86262 | -58.73945 | 37125 ft | 510 kts | 73° |
| 2026-04-24 16:27 | -34.84673 | -58.65525 | 37133 ft | 509 kts | 73° |
| 2026-04-24 16:28 | -34.83085 | -58.57130 | 37134 ft | 509 kts | 73° |
| 2026-04-24 16:28 | -34.81426 | -58.44370 | 35841 ft | 507 kts | 79° |
| 2026-04-24 16:29 | -34.81002 | -58.40139 | 35204 ft | 500 kts | 79° |
| 2026-04-24 16:29 | -34.80590 | -58.35970 | 34564 ft | 492 kts | 79° |
| 2026-04-24 16:29 | -34.79779 | -58.27889 | 33183 ft | 477 kts | 79° |
| 2026-04-24 16:30 | -34.78958 | -58.19953 | 32275 ft | 468 kts | 79° |
| 2026-04-24 16:30 | -34.78545 | -58.16044 | 31870 ft | 465 kts | 79° |
| 2026-04-24 16:30 | -34.78132 | -58.12165 | 31476 ft | 461 kts | 79° |
| 2026-04-24 16:31 | -34.77720 | -58.08310 | 31098 ft | 457 kts | 79° |
| 2026-04-24 16:31 | -34.77315 | -58.04492 | 30728 ft | 454 kts | 80° |
| 2026-04-24 16:31 | -34.76913 | -58.00701 | 30372 ft | 450 kts | 80° |
| 2026-04-24 16:31 | -34.76514 | -57.96941 | 29991 ft | 447 kts | 80° |
| 2026-04-24 16:32 | -34.76121 | -57.93261 | 29595 ft | 443 kts | 80° |
| 2026-04-24 16:32 | -34.75724 | -57.89559 | 29166 ft | 440 kts | 80° |
| 2026-04-24 16:32 | -34.75330 | -57.85883 | 28788 ft | 437 kts | 79° |
| 2026-04-24 16:32 | -34.74936 | -57.82230 | 28428 ft | 434 kts | 79° |
| 2026-04-24 16:33 | -34.74548 | -57.78611 | 27979 ft | 429 kts | 80° |
| 2026-04-24 16:33 | -34.74162 | -57.75032 | 27318 ft | 423 kts | 80° |
| 2026-04-24 16:33 | -34.73782 | -57.71507 | 26708 ft | 417 kts | 80° |
| 2026-04-24 16:33 | -34.73406 | -57.68041 | 26076 ft | 411 kts | 80° |
| 2026-04-24 16:34 | -34.73036 | -57.64623 | 25441 ft | 405 kts | 79° |
| 2026-04-24 16:34 | -34.72667 | -57.61257 | 24812 ft | 399 kts | 79° |
| 2026-04-24 16:34 | -34.72302 | -57.57978 | 24200 ft | 394 kts | 79° |
| 2026-04-24 16:34 | -34.71938 | -57.54699 | 23572 ft | 389 kts | 79° |
| 2026-04-24 16:35 | -34.71702 | -57.51446 | 22844 ft | 385 kts | 89° |
| 2026-04-24 16:35 | -34.71896 | -57.48212 | 22120 ft | 382 kts | 95° |
| 2026-04-24 16:35 | -34.72172 | -57.45020 | 21417 ft | 378 kts | 95° |
| 2026-04-24 16:35 | -34.72441 | -57.41865 | 20739 ft | 373 kts | 95° |
| 2026-04-24 16:36 | -34.72705 | -57.38740 | 20077 ft | 369 kts | 95° |
| 2026-04-24 16:36 | -34.72962 | -57.35652 | 19427 ft | 365 kts | 95° |
| 2026-04-24 16:36 | -34.73210 | -57.32638 | 18806 ft | 362 kts | 95° |
| 2026-04-24 16:36 | -34.73459 | -57.29614 | 18159 ft | 358 kts | 95° |
| 2026-04-24 16:37 | -34.73707 | -57.26614 | 17477 ft | 354 kts | 95° |
| 2026-04-24 16:37 | -34.73951 | -57.23659 | 16825 ft | 349 kts | 95° |
| 2026-04-24 16:37 | -34.74192 | -57.20738 | 16191 ft | 345 kts | 95° |
| 2026-04-24 16:37 | -34.74428 | -57.17873 | 15845 ft | 339 kts | 95° |
| 2026-04-24 16:38 | -34.74665 | -57.14997 | 15598 ft | 342 kts | 95° |
| 2026-04-24 16:38 | -34.74910 | -57.12131 | 15354 ft | 340 kts | 96° |
| 2026-04-24 16:38 | -34.75147 | -57.09276 | 15105 ft | 339 kts | 95° |
| 2026-04-24 16:38 | -34.75370 | -57.06467 | 14878 ft | 337 kts | 95° |
| 2026-04-24 16:39 | -34.75592 | -57.03634 | 14637 ft | 336 kts | 95° |
| 2026-04-24 16:39 | -34.75814 | -57.00816 | 14400 ft | 334 kts | 95° |
| 2026-04-24 16:39 | -34.76036 | -56.98011 | 14164 ft | 332 kts | 95° |
| 2026-04-24 16:39 | -34.76257 | -56.95218 | 13927 ft | 331 kts | 95° |
| 2026-04-24 16:40 | -34.76477 | -56.92446 | 13669 ft | 329 kts | 95° |
| 2026-04-24 16:40 | -34.76697 | -56.89684 | 13407 ft | 327 kts | 95° |
| 2026-04-24 16:40 | -34.76916 | -56.86949 | 13149 ft | 324 kts | 95° |
| 2026-04-24 16:40 | -34.77135 | -56.84228 | 12908 ft | 320 kts | 95° |
| 2026-04-24 16:41 | -34.77350 | -56.81549 | 12598 ft | 317 kts | 95° |
| 2026-04-24 16:41 | -34.77563 | -56.78885 | 12233 ft | 316 kts | 95° |
| 2026-04-24 16:41 | -34.77772 | -56.76230 | 11864 ft | 315 kts | 94° |
| 2026-04-24 16:41 | -34.77976 | -56.73616 | 11504 ft | 314 kts | 94° |
| 2026-04-24 16:42 | -34.78341 | -56.71008 | 11143 ft | 314 kts | 105° |
| 2026-04-24 16:42 | -34.79082 | -56.68512 | 10778 ft | 313 kts | 109° |
| 2026-04-24 16:42 | -34.79855 | -56.66040 | 10417 ft | 312 kts | 109° |
| 2026-04-24 16:42 | -34.80614 | -56.63610 | 10254 ft | 303 kts | 109° |
| 2026-04-24 16:43 | -34.81359 | -56.61225 | 9943 ft | 301 kts | 109° |
| 2026-04-24 16:43 | -34.82098 | -56.58853 | 9590 ft | 299 kts | 109° |
| 2026-04-24 16:43 | -34.82828 | -56.56510 | 9058 ft | 295 kts | 109° |
| 2026-04-24 16:43 | -34.83545 | -56.54207 | 8619 ft | 286 kts | 109° |
| 2026-04-24 16:44 | -34.84236 | -56.51989 | 8276 ft | 275 kts | 109° |
| 2026-04-24 16:44 | -34.84899 | -56.49859 | 7954 ft | 264 kts | 109° |
| 2026-04-24 16:44 | -34.85543 | -56.47788 | 7647 ft | 262 kts | 109° |
| 2026-04-24 16:44 | -34.86176 | -56.45740 | 7335 ft | 261 kts | 109° |
| 2026-04-24 16:45 | -34.86814 | -56.43677 | 7017 ft | 261 kts | 109° |
| 2026-04-24 16:45 | -34.87454 | -56.41600 | 6695 ft | 262 kts | 109° |
| 2026-04-24 16:45 | -34.88096 | -56.39517 | 6364 ft | 263 kts | 109° |
| 2026-04-24 16:45 | -34.88740 | -56.37433 | 6043 ft | 263 kts | 109° |
| 2026-04-24 16:46 | -34.89386 | -56.35347 | 5716 ft | 263 kts | 109° |
| 2026-04-24 16:46 | -34.90030 | -56.33266 | 5390 ft | 263 kts | 109° |
| 2026-04-24 16:46 | -34.90671 | -56.31184 | 5076 ft | 263 kts | 109° |
| 2026-04-24 16:46 | -34.91313 | -56.29104 | 4753 ft | 262 kts | 109° |
| 2026-04-24 16:47 | -34.91956 | -56.27024 | 4415 ft | 262 kts | 109° |
| 2026-04-24 16:47 | -34.92597 | -56.24947 | 4091 ft | 262 kts | 109° |
| 2026-04-24 16:47 | -34.93227 | -56.22897 | 3777 ft | 254 kts | 109° |
| 2026-04-24 16:47 | -34.93704 | -56.20922 | 3467 ft | 239 kts | 91° |
| 2026-04-24 16:48 | -34.93438 | -56.19002 | 3087 ft | 226 kts | 61° |
| 2026-04-24 16:48 | -34.92581 | -56.17467 | 2782 ft | 215 kts | 52° |
| 2026-04-24 16:48 | -34.91700 | -56.16026 | 2500 ft | 210 kts | 52° |
| 2026-04-24 16:48 | -34.90850 | -56.14629 | 2270 ft | 200 kts | 52° |
| 2026-04-24 16:49 | -34.90038 | -56.13291 | 1984 ft | 192 kts | 52° |
| 2026-04-24 16:49 | -34.89268 | -56.12024 | 1719 ft | 179 kts | 52° |
| 2026-04-24 16:49 | -34.88565 | -56.10867 | 1515 ft | 160 kts | 52° |
| 2026-04-24 16:49 | -34.87942 | -56.09842 | 1309 ft | 145 kts | 53° |
| 2026-04-24 16:50 | -34.87549 | -56.09198 | 1193 ft | 141 kts | 52° |
| 2026-04-24 16:50 | -34.86786 | -56.07947 | 943 ft | 138 kts | 53° |
| 2026-04-24 16:50 | -34.86215 | -56.07011 | 755 ft | 138 kts | 52° |
| 2026-04-24 16:50 | -34.85645 | -56.06074 | 580 ft | 138 kts | 52° |
| 2026-04-24 16:51 | -34.85074 | -56.05135 | 390 ft | 138 kts | 52° |
| 2026-04-24 16:51 | -34.84505 | -56.04191 | 214 ft | 139 kts | 53° |
| 2026-04-24 16:51 | -34.83943 | -56.03249 | 87 ft | 131 kts | 52° |
| 2026-04-24 16:51 | -34.83521 | -56.02565 | 86 ft | 71 kts | 53° |
| 2026-04-24 16:52 | -34.83292 | -56.02184 | 85 ft | 40 kts | 52° |
| 2026-04-24 16:52 | -34.83205 | -56.02011 | 84 ft | 16 kts | 95° |
| 2026-04-24 16:52 | -34.83257 | -56.01932 | 86 ft | 10 kts | 143° |
| 2026-04-24 16:52 | -34.83319 | -56.01875 | 85 ft | 12 kts | 143° |
| 2026-04-24 16:53 | -34.83395 | -56.01808 | 84 ft | 15 kts | 145° |
| 2026-04-24 16:53 | -34.83490 | -56.01770 | 82 ft | 16 kts | 204° |
| 2026-04-24 16:53 | -34.83565 | -56.01880 | 82 ft | 18 kts | 232° |
| 2026-04-24 16:53 | -34.83630 | -56.01970 | 85 ft | 8 kts | 197° |
| 2026-04-24 16:54 | -34.83673 | -56.01952 | 84 ft | 3 kts | 144° |
| 2026-04-24 16:54 | -34.83697 | -56.01930 | 82 ft | 2 kts | 142° |
| 2026-04-24 16:54 | -34.83701 | -56.01926 | 82 ft | 0 kts | 142° |